Time;durP1;ratioP1;P1;durP2;ratioP2;P2;SDS_P1;SDS_P2;PMS_P1;PMS_P2;Temp;Humidity;BMP_temperature;BMP_pressure;BME280_temperature;BME280_humidity;BME280_pressure;Samples;Min_cycle;Max_cycle;Signal;HPM_P1;HPM_P2
2023/09/10 00:00:17;;;;;;;5.55;4.00;;;;;;;24.79;51.23;101033.00;5119329;28;20042;-78
2023/09/10 00:03:12;;;;;;;7.38;4.55;;;;;;;24.81;51.28;101025.03;5118646;28;20051;-78
2023/09/10 00:06:04;;;;;;;6.35;4.07;;;;;;;24.79;51.27;101030.22;5118884;28;20043;-78
2023/09/10 00:08:57;;;;;;;6.07;4.03;;;;;;;24.68;51.49;101025.50;5121751;28;20050;-78
2023/09/10 00:11:51;;;;;;;5.57;4.45;;;;;;;24.73;51.53;101024.28;5123338;28;20406;-79
2023/09/10 00:14:46;;;;;;;6.35;4.40;;;;;;;24.68;51.66;101027.47;5123436;28;20054;-79
2023/09/10 00:17:40;;;;;;;9.55;5.25;;;;;;;24.64;51.65;101030.25;5123020;28;20042;-80
2023/09/10 00:20:35;;;;;;;5.60;4.03;;;;;;;24.67;51.56;101032.25;5122954;28;20129;-80
2023/09/10 00:23:29;;;;;;;8.10;5.22;;;;;;;24.62;51.64;101032.66;5122342;28;20054;-80
2023/09/10 00:26:24;;;;;;;11.35;4.60;;;;;;;24.60;51.51;101020.34;5123319;28;20042;-80
2023/09/10 00:29:19;;;;;;;11.13;4.88;;;;;;;24.68;51.54;101027.47;5124215;28;20044;-80
2023/09/10 00:32:13;;;;;;;8.88;4.35;;;;;;;24.74;51.39;101031.41;5116930;28;20054;-80
2023/09/10 00:35:08;;;;;;;7.15;4.40;;;;;;;24.71;51.42;101029.44;5126135;28;20047;-80
2023/09/10 00:38:02;;;;;;;6.25;4.30;;;;;;;24.68;51.46;101024.69;5123458;28;20050;-80
2023/09/10 00:40:57;;;;;;;5.70;4.18;;;;;;;24.65;51.54;101031.06;5125485;28;20414;-80
2023/09/10 00:43:52;;;;;;;6.68;4.28;;;;;;;24.64;51.53;101021.91;5125144;28;20069;-80
2023/09/10 00:46:46;;;;;;;6.03;4.32;;;;;;;24.62;51.70;101023.53;5122910;28;20043;-80
2023/09/10 00:49:38;;;;;;;7.05;4.47;;;;;;;24.65;51.42;101017.94;5126201;28;20050;-80
2023/09/10 00:52:39;;;;;;;8.95;3.92;;;;;;;24.63;51.52;101022.34;5122917;28;20043;-81
2023/09/10 00:55:32;;;;;;;8.80;4.18;;;;;;;24.59;51.67;101024.31;5127505;28;20047;-80
2023/09/10 00:58:27;;;;;;;6.13;4.60;;;;;;;24.58;51.58;101022.75;5122567;28;20047;-80
2023/09/10 01:01:21;;;;;;;8.85;4.80;;;;;;;24.60;51.62;101018.38;5122540;28;20046;-80
2023/09/10 01:04:14;;;;;;;8.52;4.22;;;;;;;24.56;51.59;101017.59;5122621;28;20046;-80
2023/09/10 01:07:06;;;;;;;7.22;4.03;;;;;;;24.53;51.84;101021.16;5123015;28;20046;-80
2023/09/10 01:10:01;;;;;;;10.27;4.95;;;;;;;24.57;51.71;101010.84;5122311;28;20047;-80
2023/09/10 01:13:05;;;;;;;5.97;4.32;;;;;;;24.65;51.62;101015.16;5122517;28;20040;-80
2023/09/10 01:16:03;;;;;;;6.68;4.28;;;;;;;24.67;51.53;101010.00;5122984;28;20043;-79
2023/09/10 01:19:05;;;;;;;9.20;4.65;;;;;;;24.66;51.39;101011.19;5121950;28;20133;-79
2023/09/10 01:22:07;;;;;;;4.70;4.13;;;;;;;24.64;51.57;101008.00;5121170;28;20038;-79
2023/09/10 01:25:02;;;;;;;5.35;4.28;;;;;;;24.62;51.63;101010.41;5122483;28;20072;-79
2023/09/10 01:27:54;;;;;;;7.53;4.32;;;;;;;24.67;51.49;101015.56;5123415;28;20529;-79
2023/09/10 01:30:48;;;;;;;12.18;4.50;;;;;;;24.68;51.37;101014.38;5125531;28;20525;-79
2023/09/10 01:33:46;;;;;;;8.20;4.55;;;;;;;24.67;51.42;101014.78;5125499;28;20036;-79
2023/09/10 01:36:47;;;;;;;5.60;3.92;;;;;;;24.65;51.45;101008.81;5123375;28;20047;-79
2023/09/10 01:39:43;;;;;;;6.93;4.28;;;;;;;24.66;51.28;101013.19;5125823;28;20047;-79
2023/09/10 01:42:37;;;;;;;6.68;4.13;;;;;;;24.68;51.46;101019.94;5121867;28;20051;-80
2023/09/10 01:45:33;;;;;;;6.35;3.72;;;;;;;24.68;51.38;101014.38;5121928;28;20395;-79
2023/09/10 01:48:26;;;;;;;8.57;4.30;;;;;;;24.71;51.17;101008.00;5121757;28;20517;-79
2023/09/10 01:51:21;;;;;;;5.15;3.70;;;;;;;24.73;51.33;101012.38;5122016;28;20509;-79
2023/09/10 01:54:15;;;;;;;6.95;4.18;;;;;;;24.65;51.11;101012.38;5125559;28;20046;-79
2023/09/10 01:57:09;;;;;;;6.25;3.97;;;;;;;24.67;51.21;101004.44;5122367;28;20054;-79
2023/09/10 02:00:05;;;;;;;7.10;4.55;;;;;;;24.69;51.34;101004.81;5126474;28;20046;-79
2023/09/10 02:03:04;;;;;;;11.10;4.10;;;;;;;24.74;51.11;101009.16;5122481;28;20074;-79
2023/09/10 02:05:58;;;;;;;5.78;4.43;;;;;;;24.76;50.95;101003.19;5122267;28;20043;-80
2023/09/10 02:08:53;;;;;;;6.10;4.20;;;;;;;24.79;50.99;101005.19;5125343;28;20046;-79
2023/09/10 02:11:47;;;;;;;8.07;3.65;;;;;;;24.83;50.48;101005.97;5122520;28;20046;-80
2023/09/10 02:14:42;;;;;;;8.30;4.97;;;;;;;24.44;50.81;101009.69;5121903;28;20038;-79
2023/09/10 02:17:37;;;;;;;6.15;4.90;;;;;;;23.90;52.50;101004.63;5123258;28;20046;-80
2023/09/10 02:20:35;;;;;;;6.22;4.45;;;;;;;23.69;53.63;101005.44;5121215;28;20039;-80
2023/09/10 02:23:29;;;;;;;6.00;3.75;;;;;;;24.13;52.62;101018.84;5100676;28;20058;-79
2023/09/10 02:26:24;;;;;;;9.98;6.10;;;;;;;23.75;52.65;101015.75;5102539;28;20047;-80
2023/09/10 02:29:19;;;;;;;8.05;5.80;;;;;;;23.57;52.61;101014.94;5101846;28;20043;-79
2023/09/10 02:32:14;;;;;;;9.95;6.22;;;;;;;23.46;53.51;101016.94;5102366;28;20398;-79
2023/09/10 02:35:08;;;;;;;7.60;5.03;;;;;;;23.66;53.16;101020.91;5101850;28;20525;-79
2023/09/10 02:38:03;;;;;;;10.82;5.65;;;;;;;23.57;53.27;101020.50;5100809;28;20517;-79
2023/09/10 02:40:57;;;;;;;8.05;5.15;;;;;;;23.24;54.55;101029.16;5100749;28;20062;-79
2023/09/10 02:43:52;;;;;;;9.10;6.05;;;;;;;23.02;54.91;101018.00;5118711;28;20035;-79
2023/09/10 02:46:47;;;;;;;14.68;6.20;;;;;;;22.94;55.05;101021.94;5118910;28;20051;-79
2023/09/10 02:49:41;;;;;;;11.65;6.40;;;;;;;22.92;55.27;101018.75;5116499;28;20047;-79
2023/09/10 02:52:36;;;;;;;8.88;6.10;;;;;;;22.95;55.12;101014.44;5102418;28;20051;-79
2023/09/10 02:55:28;;;;;;;7.75;5.55;;;;;;;22.98;55.37;101021.97;5101776;28;20051;-79
2023/09/10 02:58:23;;;;;;;7.63;5.57;;;;;;;22.92;55.42;101024.31;5114325;28;20399;-79
2023/09/10 03:01:17;;;;;;;11.45;6.35;;;;;;;22.78;55.71;101023.47;5117667;28;20043;-80
2023/09/10 03:04:12;;;;;;;12.15;6.30;;;;;;;22.70;55.95;101022.63;5116195;28;20055;-78
2023/09/10 03:07:07;;;;;;;9.38;6.65;;;;;;;22.48;56.60;101026.47;5124951;27;20036;-78
2023/09/10 03:10:02;;;;;;;15.18;6.53;;;;;;;22.71;55.87;101021.47;5115008;27;20043;-78
2023/09/10 03:12:56;;;;;;;13.23;4.88;;;;;;;22.74;56.20;101011.59;5109271;28;20036;-78
2023/09/10 03:15:54;;;;;;;6.30;4.30;;;;;;;23.14;55.93;101013.28;5120145;28;20056;-78
2023/09/10 03:18:47;;;;;;;9.00;5.03;;;;;;;23.26;54.48;101013.69;5121776;28;20050;-78
2023/09/10 03:21:41;;;;;;;10.30;4.10;;;;;;;23.53;54.46;101022.47;5122294;28;20133;-79
2023/09/10 03:24:38;;;;;;;6.53;3.88;;;;;;;23.54;53.48;101021.28;5125216;28;20264;-79
2023/09/10 03:27:33;;;;;;;4.72;4.22;;;;;;;23.70;53.29;101020.91;5123975;28;20063;-79
2023/09/10 03:30:27;;;;;;;14.35;6.25;;;;;;;23.64;52.52;101020.50;5127292;28;20047;-79
2023/09/10 03:33:22;;;;;;;6.55;5.57;;;;;;;23.57;53.31;101025.28;5124333;28;20060;-79
2023/09/10 03:36:17;;;;;;;8.82;4.80;;;;;;;23.77;53.27;101023.69;5127971;28;20055;-79
2023/09/10 03:39:12;;;;;;;9.98;5.75;;;;;;;23.80;53.34;101015.34;5124579;28;20050;-79
2023/09/10 03:42:06;;;;;;;9.98;5.60;;;;;;;23.91;52.72;101009.00;5123710;28;20042;-79
2023/09/10 03:44:58;;;;;;;6.28;5.00;;;;;;;24.11;52.30;101005.38;5127509;28;20046;-79
2023/09/10 03:47:53;;;;;;;13.18;6.15;;;;;;;23.79;52.58;100993.50;5125309;28;20046;-79
2023/09/10 03:50:48;;;;;;;15.50;6.57;;;;;;;22.92;54.90;100993.00;5124441;28;20047;-79
2023/09/10 03:53:42;;;;;;;11.68;7.40;;;;;;;23.11;54.35;100992.66;5124897;28;20125;-80
2023/09/10 03:56:37;;;;;;;10.57;4.82;;;;;;;23.24;54.97;100990.31;5124478;28;20048;-79
2023/09/10 03:59:29;;;;;;;8.63;6.63;;;;;;;23.27;54.06;100992.28;5124183;28;20040;-79
2023/09/10 04:02:24;;;;;;;6.93;5.85;;;;;;;23.27;54.13;100995.06;5124641;28;20046;-79
2023/09/10 04:05:19;;;;;;;16.00;5.20;;;;;;;23.36;54.42;100989.94;5125945;27;20051;-79
2023/09/10 04:08:14;;;;;;;12.25;6.10;;;;;;;23.29;53.80;101001.81;5122981;28;20039;-79
2023/09/10 04:11:08;;;;;;;9.52;5.95;;;;;;;23.10;54.26;101002.19;5117820;28;20410;-79
2023/09/10 04:14:03;;;;;;;10.25;5.78;;;;;;;22.99;54.53;100999.38;5117610;28;20050;-79
2023/09/10 04:16:57;;;;;;;10.40;6.13;;;;;;;22.83;55.42;101003.69;5124415;28;20498;-79
2023/09/10 04:19:52;;;;;;;14.88;5.47;;;;;;;23.03;55.58;101008.50;5117151;28;20044;-79
2023/09/10 04:22:47;;;;;;;8.65;4.68;;;;;;;23.35;54.56;101005.00;5109567;28;20042;-79
2023/09/10 04:25:41;;;;;;;15.02;6.43;;;;;;;23.13;54.38;101011.69;5123822;28;20046;-79
2023/09/10 04:28:36;;;;;;;8.27;5.28;;;;;;;23.11;54.72;101005.75;5124477;28;20047;-79
2023/09/10 04:31:31;;;;;;;6.63;5.10;;;;;;;23.34;54.27;101001.41;5124891;28;20047;-79
2023/09/10 04:34:26;;;;;;;8.60;5.03;;;;;;;23.73;53.51;101001.44;5124355;28;20102;-79
2023/09/10 04:37:20;;;;;;;7.93;5.20;;;;;;;24.00;52.50;100998.25;5124272;28;20047;-79
2023/09/10 04:40:13;;;;;;;7.55;5.50;;;;;;;24.09;52.03;101004.97;5122814;28;20039;-79
2023/09/10 04:43:05;;;;;;;8.70;4.47;;;;;;;24.22;51.90;101008.16;5126742;28;20042;-80
2023/09/10 04:46:00;;;;;;;5.32;4.30;;;;;;;24.26;51.74;101012.53;5124156;28;20038;-79
2023/09/10 04:48:54;;;;;;;6.43;3.75;;;;;;;24.23;51.64;101012.50;5121428;28;20054;-80
2023/09/10 04:51:47;;;;;;;;;;;;;;;24.26;51.55;101011.72;5117206;28;20038;-79
2023/09/10 04:54:41;;;;;;;5.32;4.03;;;;;;;24.27;51.71;101013.31;5117987;28;20493;-79
2023/09/10 04:57:35;;;;;;;10.20;4.10;;;;;;;24.32;51.19;101004.56;5123999;28;20058;-79
2023/09/10 05:00:30;;;;;;;6.75;4.40;;;;;;;24.32;51.42;101009.34;5116953;28;20043;-79
2023/09/10 05:03:24;;;;;;;8.77;4.40;;;;;;;24.32;51.18;101018.47;5121613;28;20270;-80
2023/09/10 05:06:19;;;;;;;10.88;5.47;;;;;;;24.32;51.30;101014.91;5126081;28;20513;-81
2023/09/10 05:09:14;;;;;;;6.53;4.88;;;;;;;24.32;51.16;101014.91;5123222;28;20044;-79
2023/09/10 05:12:08;;;;;;;7.95;4.68;;;;;;;24.33;51.37;101024.81;5122999;28;20047;-80
2023/09/10 05:15:03;;;;;;;8.07;5.03;;;;;;;24.32;51.27;101024.03;5125703;28;20072;-79
2023/09/10 05:17:57;;;;;;;11.40;5.32;;;;;;;24.32;51.30;101032.38;5119076;28;20058;-78
2023/09/10 05:20:52;;;;;;;9.63;5.40;;;;;;;24.10;52.04;101026.03;5127835;28;20058;-79
2023/09/10 05:23:47;;;;;;;10.13;4.88;;;;;;;24.20;51.42;101024.44;5126880;28;20050;-79
2023/09/10 05:26:42;;;;;;;8.32;4.70;;;;;;;24.22;51.46;101031.19;5125823;28;20040;-79
2023/09/10 05:29:37;;;;;;;12.05;4.45;;;;;;;24.34;51.38;101040.28;5128028;28;20066;-79
2023/09/10 05:32:29;;;;;;;9.45;4.45;;;;;;;24.36;51.36;101043.47;5125791;28;20036;-78
2023/09/10 05:35:24;;;;;;;10.27;4.07;;;;;;;24.42;51.21;101037.09;5129512;28;20684;-79
2023/09/10 05:38:19;;;;;;;6.00;4.20;;;;;;;24.46;51.04;101032.31;5125661;28;20047;-79
2023/09/10 05:41:14;;;;;;;7.55;4.30;;;;;;;24.51;50.94;101025.56;5128003;28;20047;-79
2023/09/10 05:44:08;;;;;;;6.95;4.68;;;;;;;24.52;50.90;101029.94;5127358;28;20054;-79
2023/09/10 05:47:03;;;;;;;7.53;5.40;;;;;;;24.55;50.96;101027.13;5124776;28;20055;-79
2023/09/10 05:49:58;;;;;;;7.05;4.32;;;;;;;24.48;51.27;101029.16;5128723;28;20520;-79
2023/09/10 05:52:53;;;;;;;6.45;4.80;;;;;;;24.48;51.23;101021.56;5127020;28;20042;-79
2023/09/10 05:55:47;;;;;;;7.75;5.20;;;;;;;24.27;52.40;101027.22;5130761;28;20047;-79
2023/09/10 05:58:42;;;;;;;7.85;5.45;;;;;;;24.07;53.20;101023.25;5128905;28;20046;-79
2023/09/10 06:01:37;;;;;;;8.05;5.32;;;;;;;24.07;52.93;101026.03;5126359;28;20042;-79
2023/09/10 06:04:31;;;;;;;8.75;5.60;;;;;;;23.97;54.01;101026.84;5129368;28;20050;-79
2023/09/10 06:07:26;;;;;;;9.23;4.50;;;;;;;24.00;53.78;101028.81;5128162;28;20051;-79
2023/09/10 06:10:20;;;;;;;8.52;3.90;;;;;;;24.31;52.56;101027.19;5132601;28;20578;-80
2023/09/10 06:13:15;;;;;;;7.88;4.82;;;;;;;24.43;52.57;101021.97;5129672;28;20046;-79
2023/09/10 06:16:10;;;;;;;10.30;5.47;;;;;;;24.49;52.62;101020.38;5125404;28;20054;-79
2023/09/10 06:19:04;;;;;;;6.47;4.63;;;;;;;24.64;52.10;101027.47;5128600;28;20642;-79
2023/09/10 06:21:59;;;;;;;10.05;4.45;;;;;;;24.68;51.89;101022.72;5125454;28;20121;-79
2023/09/10 06:24:54;;;;;;;10.82;4.70;;;;;;;24.76;51.96;101025.44;5129604;28;20043;-79
2023/09/10 06:27:46;;;;;;;;;;;;;;;24.85;51.82;101028.59;5128383;28;20051;-79
2023/09/10 06:30:42;;;;;;;13.32;6.07;;;;;;;24.77;53.82;101030.63;5125733;28;19915;-79
2023/09/10 06:33:36;;;;;;;12.25;5.25;;;;;;;24.78;52.63;101031.41;5129076;28;20040;-79
2023/09/10 06:36:31;;;;;;;9.68;4.18;;;;;;;24.87;52.12;101034.53;5123653;28;20082;-81
2023/09/10 06:39:25;;;;;;;11.48;5.45;;;;;;;24.85;52.35;101034.94;5126772;28;20529;-81
2023/09/10 06:42:20;;;;;;;9.05;5.32;;;;;;;24.98;52.33;101035.31;5125419;28;20039;-81
2023/09/10 06:45:25;;;;;;;8.73;4.95;;;;;;;24.87;52.34;101034.53;5123393;28;20047;-81
2023/09/10 06:48:19;;;;;;;7.13;4.88;;;;;;;24.88;52.21;101031.41;5123102;28;20050;-81
2023/09/10 06:51:11;;;;;;;6.43;4.82;;;;;;;24.90;52.34;101040.13;5125201;28;20054;-81
2023/09/10 06:54:06;;;;;;;7.03;4.50;;;;;;;25.14;52.07;101041.97;5124711;28;20039;-79
2023/09/10 06:57:01;;;;;;;8.30;5.10;;;;;;;25.36;51.53;101036.28;5116092;28;20536;-79
2023/09/10 06:59:50;;;;;;;8.23;5.30;;;;;;;25.88;51.01;101045.44;5115161;28;20042;-76
2023/09/10 07:02:45;;;;;;;8.30;5.43;;;;;;;26.37;49.46;101047.78;5115755;28;20042;-77
2023/09/10 07:05:42;;;;;;;10.15;5.15;;;;;;;26.83;47.75;101052.81;5115641;28;20035;-77
2023/09/10 07:08:37;;;;;;;5.70;4.97;;;;;;;27.32;46.53;101039.41;5115476;28;20651;-77
2023/09/10 07:11:31;;;;;;;8.00;4.50;;;;;;;27.77;45.31;101047.53;5115319;28;20050;-78
2023/09/10 07:14:26;;;;;;;5.25;4.47;;;;;;;28.25;44.34;101052.66;5115319;28;20066;-77
2023/09/10 07:17:18;;;;;;;;;;;;;;;28.75;42.74;101060.94;5115849;28;20043;-76
2023/09/10 07:20:08;;;;;;;8.23;4.70;;;;;;;29.34;41.15;101058.06;5114657;28;19916;-76
2023/09/10 07:23:03;;;;;;;10.40;4.80;;;;;;;29.99;39.81;101064.47;5115176;28;20050;-77
2023/09/10 07:25:57;;;;;;;6.00;3.97;;;;;;;30.90;37.40;101070.81;5117613;28;20039;-78
2023/09/10 07:28:52;;;;;;;7.85;3.63;;;;;;;32.10;34.96;101066.97;5114779;28;20046;-77
2023/09/10 07:31:44;;;;;;;;;;;;;;;33.54;32.75;101073.31;5115813;28;20548;-77
2023/09/10 07:34:38;;;;;;;5.82;4.18;;;;;;;34.70;30.62;101076.00;5116519;28;19923;-77
2023/09/10 07:37:33;;;;;;;16.10;4.15;;;;;;;36.83;27.47;101073.88;5115518;28;20055;-76
2023/09/10 07:40:27;;;;;;;39.00;5.70;;;;;;;37.72;25.92;101066.81;5115332;27;20061;-76
2023/09/10 07:43:22;;;;;;;15.40;4.05;;;;;;;39.14;24.04;101080.84;5116425;27;20042;-77
2023/09/10 07:46:17;;;;;;;7.25;3.55;;;;;;;39.71;22.68;101084.38;5112430;27;20035;-77
2023/09/10 07:49:11;;;;;;;13.05;5.00;;;;;;;39.61;22.36;101079.41;5128962;27;20038;-77
2023/09/10 07:52:06;;;;;;;5.10;4.07;;;;;;;42.32;19.53;101085.09;5129295;27;20039;-77
2023/09/10 07:55:00;;;;;;;6.28;5.07;;;;;;;38.00;24.34;101082.19;5106890;27;20042;-77
2023/09/10 07:57:53;;;;;;;7.93;2.95;;;;;;;40.88;21.19;101086.91;5123713;27;20038;-77
2023/09/10 08:00:47;;;;;;;6.47;4.05;;;;;;;42.08;19.99;101094.28;5102826;27;20046;-77
2023/09/10 08:03:42;;;;;;;9.13;4.47;;;;;;;38.92;23.46;101093.59;5134586;27;20046;-78
2023/09/10 08:06:36;;;;;;;20.48;4.22;;;;;;;42.07;20.22;101093.50;5117175;27;20038;-77
2023/09/10 08:09:30;;;;;;;8.32;4.15;;;;;;;42.32;19.69;101103.03;5121358;27;20043;-77
2023/09/10 08:12:25;;;;;;;7.45;4.07;;;;;;;43.22;18.90;101108.97;5096904;28;20051;-77
2023/09/10 08:15:19;;;;;;;19.58;3.88;;;;;;;44.09;17.87;101104.94;5105889;27;20062;-77
2023/09/10 08:18:15;;;;;;;7.65;3.65;;;;;;;44.38;17.54;101109.78;5112306;27;20059;-78
2023/09/10 08:21:10;;;;;;;18.67;3.97;;;;;;;42.94;18.57;101109.94;5101479;28;20050;-78
2023/09/10 08:24:04;;;;;;;7.20;3.90;;;;;;;44.71;16.88;101114.25;5108935;27;20043;-80
2023/09/10 08:26:59;;;;;;;10.02;3.28;;;;;;;45.69;16.09;101123.06;5116360;27;20043;-88
2023/09/10 08:29:53;;;;;;;20.45;3.97;;;;;;;45.85;15.62;101133.47;5117209;27;20047;-83
2023/09/10 08:32:47;;;;;;;5.25;3.15;;;;;;;43.36;17.27;101111.41;5115994;27;20058;-80
2023/09/10 08:35:52;;;;;;;21.45;4.13;;;;;;;43.20;18.41;101106.63;5110287;28;20529;-82
2023/09/10 08:38:47;;;;;;;32.15;4.60;;;;;;;46.16;15.45;101121.09;5113853;27;21391;-81
2023/09/10 08:42:09;;;;;;;31.55;5.05;;;;;;;45.83;15.37;101113.13;5102692;28;20058;-81
2023/09/10 08:45:07;;;;;;;25.17;3.42;;;;;;;47.32;14.66;101118.91;5102286;27;20036;-82
2023/09/10 08:48:02;;;;;;;10.93;3.47;;;;;;;43.90;16.97;101119.22;5105584;27;20047;-83
2023/09/10 08:50:57;;;;;;;3.92;3.10;;;;;;;47.06;14.12;101109.06;5115149;27;20032;-82
2023/09/10 08:53:52;;;;;;;11.13;3.17;;;;;;;46.30;14.85;101122.63;5123525;27;20058;-82
2023/09/10 08:56:45;;;;;;;14.57;3.13;;;;;;;45.07;16.39;101121.28;5124856;27;20514;-87
2023/09/10 08:59:40;;;;;;;7.60;3.20;;;;;;;43.52;16.81;101109.72;5116314;27;20046;-83
2023/09/10 09:02:32;;;;;;;4.97;2.80;;;;;;;46.14;15.22;101117.19;5111312;28;20431;-83
2023/09/10 09:05:29;;;;;;;11.52;3.45;;;;;;;47.41;13.32;101118.38;5105392;27;20035;-84
2023/09/10 09:08:31;;;;;;;10.82;3.65;;;;;;;46.25;15.09;101114.88;5121741;28;20042;-83
2023/09/10 09:11:28;;;;;;;22.70;4.75;;;;;;;47.81;13.90;101121.75;5130849;27;20049;-83
2023/09/10 09:14:22;;;;;;;16.80;3.03;;;;;;;48.52;12.60;101115.19;5110984;27;20436;-83
2023/09/10 09:17:19;;;;;;;30.73;3.20;;;;;;;47.81;13.68;101104.44;5125134;27;20043;-82
2023/09/10 09:20:13;;;;;;;9.40;2.97;;;;;;;50.07;11.54;101111.13;5116783;27;20046;-82
2023/09/10 09:23:24;;;;;;;18.00;3.38;;;;;;;49.62;11.92;101112.78;5128058;27;20058;-83
2023/09/10 09:26:20;;;;;;;23.77;3.55;;;;;;;50.35;11.22;101110.81;5123104;27;20039;-84
2023/09/10 09:29:13;;;;;;;7.75;2.38;;;;;;;50.86;11.21;101112.47;5116418;28;20537;-82
2023/09/10 09:32:08;;;;;;;5.03;3.15;;;;;;;50.37;11.04;101119.69;5130777;27;20440;-84
2023/09/10 09:35:03;;;;;;;11.25;3.47;;;;;;;50.47;11.15;101109.03;5117291;27;20517;-82
2023/09/10 09:37:58;;;;;;;13.52;2.70;;;;;;;48.84;12.51;101103.91;5133304;27;20051;-81
2023/09/10 09:40:50;;;;;;;5.43;3.15;;;;;;;44.70;14.87;101096.25;5124881;27;20316;-79
2023/09/10 09:43:42;;;;;;;11.05;3.00;;;;;;;49.57;12.27;101096.41;5123308;27;20049;-79
2023/09/10 09:46:39;;;;;;;13.95;2.60;;;;;;;49.96;11.39;101102.88;5098773;27;20494;-81
2023/09/10 09:49:44;;;;;;;10.85;2.67;;;;;;;51.87;10.64;101105.97;5116607;27;20046;-80
2023/09/10 09:52:38;;;;;;;14.98;3.17;;;;;;;52.61;9.78;101102.66;5120503;27;20035;-80
2023/09/10 09:55:33;;;;;;;13.13;3.20;;;;;;;50.75;10.81;101096.28;5128722;27;20413;-81
2023/09/10 09:58:27;;;;;;;7.68;3.38;;;;;;;51.80;10.35;101098.09;5116263;27;20040;-78
2023/09/10 10:01:22;;;;;;;12.97;3.37;;;;;;;52.30;10.27;101092.81;5120008;27;20520;-78
2023/09/10 10:04:17;;;;;;;7.35;2.95;;;;;;;51.99;10.39;101092.44;5114768;27;20043;-78
2023/09/10 10:07:10;;;;;;;7.82;2.72;;;;;;;50.48;10.35;101090.31;5093028;28;20399;-79
2023/09/10 10:10:04;;;;;;;9.93;2.90;;;;;;;47.96;12.51;101078.56;5093578;28;20043;-78
2023/09/10 10:13:02;;;;;;;6.93;2.80;;;;;;;51.53;10.77;101090.06;5094073;28;20522;-79
2023/09/10 10:15:55;;;;;;;5.18;2.58;;;;;;;50.45;11.62;101082.00;5099780;28;20047;-79
2023/09/10 10:18:46;;;;;;;9.63;3.80;;;;;;;51.23;10.83;101082.41;5113773;28;20454;-78
2023/09/10 10:21:38;;;;;;;;;;;;;;;50.78;10.53;101077.75;5113541;28;20050;-79
2023/09/10 10:24:33;;;;;;;7.43;3.00;;;;;;;51.01;10.87;101071.00;5113614;28;19915;-78
2023/09/10 10:27:29;;;;;;;10.68;3.28;;;;;;;48.49;12.17;101058.59;5110731;28;20039;-80
2023/09/10 10:30:25;;;;;;;5.70;2.90;;;;;;;43.27;16.44;101053.72;5102866;28;20134;-80
2023/09/10 10:33:23;;;;;;;3.60;3.15;;;;;;;49.00;12.25;101057.69;5109997;28;20058;-79
2023/09/10 10:36:20;;;;;;;3.63;2.33;;;;;;;48.45;12.97;101052.44;5107737;28;20043;-79
2023/09/10 10:39:18;;;;;;;11.18;3.40;;;;;;;51.48;11.65;101061.31;5108394;28;20046;-80
2023/09/10 10:42:15;;;;;;;18.98;4.28;;;;;;;50.32;11.71;101059.09;5111572;28;20054;-78
2023/09/10 10:45:10;;;;;;;122.22;27.58;;;;;;;50.56;10.45;101052.59;5109333;28;20035;-82
2023/09/10 10:48:09;;;;;;;147.82;33.75;;;;;;;49.29;12.45;101041.69;5113536;28;20039;-82
2023/09/10 10:51:01;;;;;;;33.05;10.20;;;;;;;51.67;10.46;101049.84;5111271;28;20514;-83
2023/09/10 10:53:52;;;;;;;35.15;6.65;;;;;;;51.11;11.15;101040.00;5112718;28;20039;-84
2023/09/10 10:56:43;;;;;;;25.52;5.15;;;;;;;49.57;12.68;101032.78;5095091;28;20051;-82
2023/09/10 10:59:38;;;;;;;28.55;5.70;;;;;;;48.53;11.77;101030.09;5112779;28;20043;-82
2023/09/10 11:02:27;;;;;;;17.83;5.15;;;;;;;50.53;11.26;101033.50;5114202;28;20429;-82
2023/09/10 11:05:22;;;;;;;27.90;4.28;;;;;;;52.34;10.46;101029.25;5114317;28;20392;-82
2023/09/10 11:08:30;;;;;;;9.68;3.47;;;;;;;54.13;9.11;101038.78;5113412;28;20046;-82
2023/09/10 11:11:44;;;;;;;7.78;3.15;;;;;;;52.57;9.79;101034.75;5114511;28;20505;-82
2023/09/10 11:15:03;;;;;;;6.80;3.35;;;;;;;50.47;10.88;101032.97;5118028;28;20070;-82
2023/09/10 11:18:15;;;;;;;5.55;3.15;;;;;;;51.94;10.59;101023.81;5114950;28;20054;-82
2023/09/10 11:21:12;;;;;;;9.65;3.20;;;;;;;50.37;11.82;101027.03;5114279;28;20497;-82
2023/09/10 11:24:14;;;;;;;6.53;3.60;;;;;;;51.19;11.21;101024.09;5114271;28;20402;-82
2023/09/10 11:27:26;;;;;;;7.22;3.58;;;;;;;52.61;10.14;101020.53;5117420;28;20390;-82
2023/09/10 11:30:23;;;;;;;4.55;2.53;;;;;;;52.57;10.13;101017.31;5105884;28;20521;-83
2023/09/10 11:33:36;;;;;;;4.35;3.00;;;;;;;51.46;10.31;101008.94;5108633;28;20059;-82
2023/09/10 11:36:29;;;;;;;5.03;2.90;;;;;;;46.62;14.45;100995.00;5101838;28;20098;-82
2023/09/10 11:39:21;;;;;;;5.63;3.22;;;;;;;50.92;10.65;101005.78;5110727;28;20513;-81
2023/09/10 11:42:13;;;;;;;39.55;4.10;;;;;;;52.45;10.24;101002.56;5112208;28;20042;-80
2023/09/10 11:45:08;;;;;;;15.68;3.35;;;;;;;43.29;17.39;100979.47;5113017;28;20070;-82
2023/09/10 11:48:01;;;;;;;5.25;3.55;;;;;;;36.52;25.05;100966.63;5122038;28;20039;-81
2023/09/10 11:50:56;;;;;;;5.35;3.70;;;;;;;33.50;29.86;100957.03;5119304;28;20043;-82
2023/09/10 11:53:48;;;;;;;7.50;3.55;;;;;;;32.57;31.75;100950.69;5114348;28;20050;-82
2023/09/10 11:56:40;;;;;;;10.95;3.85;;;;;;;31.91;32.85;100951.91;5113600;28;20046;-82
2023/09/10 11:59:35;;;;;;;8.05;3.40;;;;;;;30.50;35.64;100953.25;5120265;28;20046;-82
2023/09/10 12:02:28;;;;;;;9.20;4.15;;;;;;;30.18;36.39;100951.34;5125923;28;20050;-82
2023/09/10 12:05:24;;;;;;;11.50;4.45;;;;;;;30.21;36.39;100946.88;5120485;28;20517;-82
2023/09/10 12:08:18;;;;;;;5.60;3.65;;;;;;;30.02;37.11;100947.81;5120744;28;20047;-82
2023/09/10 12:11:12;;;;;;;6.32;3.83;;;;;;;30.35;35.79;100949.25;5122616;28;20051;-81
2023/09/10 12:14:02;;;;;;;8.38;3.90;;;;;;;30.47;35.19;100953.38;5120891;28;20039;-80
2023/09/10 12:16:55;;;;;;;5.70;4.00;;;;;;;29.98;36.73;100953.50;5119852;28;20051;-81
2023/09/10 12:19:49;;;;;;;6.15;4.53;;;;;;;29.94;37.16;100943.63;5123140;28;20046;-81
2023/09/10 12:22:41;;;;;;;8.07;3.97;;;;;;;30.68;35.70;100955.50;5120528;28;20050;-81
2023/09/10 12:25:33;;;;;;;7.13;3.70;;;;;;;30.58;35.56;100949.00;5120833;28;20042;-81
2023/09/10 12:28:27;;;;;;;6.00;3.90;;;;;;;29.73;37.80;100945.75;5122251;28;20078;-82
2023/09/10 12:31:22;;;;;;;12.63;4.32;;;;;;;28.83;39.92;100944.75;5119967;28;20043;-81
2023/09/10 12:34:14;;;;;;;6.57;4.32;;;;;;;29.05;39.26;100939.47;5120056;28;20066;-81
2023/09/10 12:37:07;;;;;;;6.63;4.63;;;;;;;28.71;39.67;100946.19;5121069;28;20075;-81
2023/09/10 12:40:01;;;;;;;6.00;4.78;;;;;;;28.79;39.68;100933.66;5120406;28;20050;-81
2023/09/10 12:42:54;;;;;;;15.25;6.00;;;;;;;28.82;39.56;100932.78;5120248;28;20042;-82
2023/09/10 12:45:46;;;;;;;9.32;4.25;;;;;;;29.69;37.51;100939.44;5119715;28;20039;-81
2023/09/10 12:48:38;;;;;;;;;;;;;;;29.80;37.31;100936.38;5123448;28;20062;-82
2023/09/10 12:51:32;;;;;;;8.93;4.22;;;;;;;29.84;36.68;100939.06;5120047;28;19912;-81
2023/09/10 12:54:24;;;;;;;;;;;;;;;29.69;37.35;100939.44;5117474;28;20046;-81
2023/09/10 12:57:19;;;;;;;4.63;3.70;;;;;;;29.46;38.13;100933.28;5126533;28;19915;-82
2023/09/10 13:00:09;;;;;;;;;;;;;;;29.25;38.82;100926.94;5100847;28;20165;-81
2023/09/10 13:03:04;;;;;;;13.73;5.05;;;;;;;29.05;38.97;100931.06;5101107;28;19912;-81
2023/09/10 13:05:56;;;;;;;7.90;4.25;;;;;;;28.79;39.49;100922.47;5100994;28;20039;-81
2023/09/10 13:08:51;;;;;;;7.45;4.25;;;;;;;29.18;38.81;100923.53;5100411;28;20395;-81
2023/09/10 13:11:40;;;;;;;11.88;4.03;;;;;;;29.52;37.63;100914.69;5111065;27;20537;-81
2023/09/10 13:14:39;;;;;;;6.25;4.68;;;;;;;29.08;39.34;100913.38;5117358;27;20047;-82
2023/09/10 13:17:31;;;;;;;8.90;4.32;;;;;;;28.85;39.55;100915.09;5116696;28;20422;-82
2023/09/10 13:20:25;;;;;;;14.73;4.72;;;;;;;28.94;39.02;100911.72;5122693;28;20046;-83
2023/09/10 13:23:18;;;;;;;7.63;4.20;;;;;;;29.55;38.06;100909.00;5120641;28;20032;-80
2023/09/10 13:26:13;;;;;;;5.53;3.88;;;;;;;29.38;38.34;100909.44;5119930;28;20047;-81
2023/09/10 13:29:02;;;;;;;;;;;;;;;28.97;39.37;100898.84;5106568;28;20050;-81
2023/09/10 13:31:57;;;;;;;5.60;3.88;;;;;;;28.65;39.91;100894.72;5121252;28;19912;-81